This is the latest recevied weather packets stored in our database for station/object NW6UP. If no packets are shown the sender has not sent any weather packets the latest 10 day(s).
| Time | Temp. | Humidity | Pressure | Rain* | Wind** | Luminosity | Snow |
|---|---|---|---|---|---|---|---|
| 1777867466 | 13.33° C | 64% | 1012.7 hPa | 0 mm | - | - | - |
| 1777866266 | 13.89° C | 61% | 0 hPa | 0 mm | - | - | - |
| 1777865069 | 14.44° C | 57% | 1012.1 hPa | 0 mm | - | - | - |
| 1777863866 | 15° C | 55% | 1012 hPa | 0 mm | - | - | - |
| 1777862667 | 15.56° C | 55% | 0 hPa | 0 mm | - | - | - |
| 1777861467 | 16.67° C | 54% | 1011.7 hPa | 0 mm | - | - | - |
| 1777860265 | 17.22° C | 51% | 1011.6 hPa | 0 mm | - | - | - |
| 1777857866 | 18.33° C | 45% | 0 hPa | 0 mm | - | - | - |
| 1777855465 | 19.44° C | 42% | 1011.5 hPa | 0 mm | - | - | - |
| 1777854266 | 20.56° C | 41% | 1011.3 hPa | 0 mm | - | - | - |
| 1777853066 | 21.11° C | 40% | 0 hPa | 0 mm | - | - | - |
| 1777850666 | 20.56° C | 43% | 1011.6 hPa | 0 mm | - | - | - |
| 1777849467 | 21.11° C | 44% | 1011.7 hPa | 0 mm | - | - | - |
| 1777848266 | 20.56° C | 45% | 0 hPa | 0 mm | - | - | - |
| 1777847065 | 21.11° C | 44% | 0 hPa | 0 mm | - | - | - |
| 1777845866 | 20.56° C | 45% | 1011.8 hPa | 0 mm | - | - | - |
| 1777844666 | 19.44° C | 46% | 1011.5 hPa | 0 mm | - | - | - |
| 1777843466 | 20.56° C | 46% | 0 hPa | 0 mm | - | - | - |
| 1777841065 | 19.44° C | 47% | 1011.8 hPa | 0 mm | - | - | - |
| 1777839868 | 19.44° C | 48% | 0 hPa | 0 mm | - | - | - |
| 1777838666 | 19.44° C | 47% | 0 hPa | 0 mm | - | - | - |
| 1777837467 | 19.44° C | 47% | 1012.3 hPa | 0 mm | - | - | - |
| 1777836265 | 19.44° C | 45% | 1012.3 hPa | 0 mm | - | - | - |
| 1777835065 | 19.44° C | 45% | 0 hPa | 0 mm | - | - | - |
| 1777831465 | 17.78° C | 55% | 0 hPa | 0 mm | - | - | - |
* Rain latest hour (hover to see other rain measurements)
** Current wind speed in m/s (hover to see current wind gust speed)